Time;durP1;ratioP1;P1;durP2;ratioP2;P2;SDS_P1;SDS_P2;PMS_P1;PMS_P2;Temp;Humidity;BMP_temperature;BMP_pressure;BME280_temperature;BME280_humidity;BME280_pressure;Samples;Min_cycle;Max_cycle;Signal;HPM_P1;HPM_P2
2021/11/24 00:02:13;;;;;;;17.42;11.68;;;;;;;-146.90;100.00;60518.97;4986020;28;20258;-69
2021/11/24 00:04:39;;;;;;;19.08;12.88;;;;;;;-146.90;100.00;60518.97;4986185;28;20476;-71
2021/11/24 00:07:04;;;;;;;21.27;12.52;;;;;;;-146.90;100.00;60518.97;4982882;28;20056;-69
2021/11/24 00:09:29;;;;;;;28.33;12.80;;;;;;;-146.90;100.00;60518.97;4967391;28;20054;-71
2021/11/24 00:11:55;;;;;;;18.83;11.45;;;;;;;-146.90;100.00;60518.97;4977167;28;20041;-70
2021/11/24 00:14:20;;;;;;;18.65;12.43;;;;;;;-146.90;100.00;60518.97;4974937;28;20041;-70
2021/11/24 00:16:46;;;;;;;21.65;12.20;;;;;;;-146.90;100.00;60518.97;4977795;28;20112;-71
2021/11/24 00:19:12;;;;;;;20.23;12.95;;;;;;;-146.90;100.00;60518.97;4985145;28;20034;-70
2021/11/24 00:21:37;;;;;;;25.13;13.70;;;;;;;-146.90;100.00;60518.97;4972290;28;20535;-70
2021/11/24 00:24:03;;;;;;;24.83;13.63;;;;;;;-146.90;100.00;60518.97;4982046;28;20690;-70
2021/11/24 00:26:28;;;;;;;24.67;16.00;;;;;;;-146.90;100.00;60518.97;4986317;28;20502;-70
2021/11/24 00:28:53;;;;;;;31.60;20.20;;;;;;;-146.90;100.00;60518.97;4986023;28;20079;-71
2021/11/24 00:31:19;;;;;;;28.25;19.02;;;;;;;-146.90;100.00;60518.97;4985555;28;20065;-71
2021/11/24 00:33:45;;;;;;;27.20;18.17;;;;;;;-146.90;100.00;60518.97;4985556;28;20030;-70
2021/11/24 00:36:10;;;;;;;26.88;18.35;;;;;;;-146.90;100.00;60518.97;4985618;28;20072;-71
2021/11/24 00:38:35;;;;;;;18.88;13.93;;;;;;;-146.90;100.00;60518.97;4986383;28;20072;-73
2021/11/24 00:41:01;;;;;;;21.65;14.32;;;;;;;-146.90;100.00;60518.97;4986326;28;20053;-69
2021/11/24 00:43:27;;;;;;;20.75;13.85;;;;;;;-146.90;100.00;60518.97;4985848;28;20436;-71
2021/11/24 00:45:53;;;;;;;22.88;15.10;;;;;;;-146.90;100.00;60518.97;4986167;28;20022;-72
2021/11/24 00:48:18;;;;;;;22.60;15.30;;;;;;;-146.90;100.00;60518.97;4985185;28;20040;-71
2021/11/24 00:50:44;;;;;;;21.15;15.77;;;;;;;-146.90;100.00;60518.97;4984663;28;20105;-72
2021/11/24 00:53:09;;;;;;;24.48;15.63;;;;;;;-146.90;100.00;60518.97;4983687;28;20064;-70
2021/11/24 00:55:34;;;;;;;25.27;16.08;;;;;;;-146.90;100.00;60518.97;4983749;28;20026;-70
2021/11/24 00:58:00;;;;;;;21.60;15.00;;;;;;;-146.90;100.00;60518.97;4984913;28;20031;-71
2021/11/24 01:00:25;;;;;;;26.20;15.77;;;;;;;-146.90;100.00;60518.97;4984419;28;20018;-70
2021/11/24 01:02:50;;;;;;;24.88;16.15;;;;;;;-146.90;100.00;60518.97;4984599;28;20721;-69
2021/11/24 01:05:16;;;;;;;24.40;16.92;;;;;;;-146.90;100.00;60518.97;4978834;28;20602;-70
2021/11/24 01:07:41;;;;;;;23.50;15.98;;;;;;;-146.90;100.00;60518.97;4985421;28;20026;-69
2021/11/24 01:10:07;;;;;;;26.38;16.98;;;;;;;-146.90;100.00;60518.97;4985518;28;20105;-70
2021/11/24 01:12:34;;;;;;;25.00;16.65;;;;;;;-146.90;100.00;60518.97;4985103;28;20491;-72
2021/11/24 01:14:59;;;;;;;22.35;15.73;;;;;;;-146.90;100.00;60518.97;4986070;28;20073;-72
2021/11/24 01:17:24;;;;;;;24.02;16.65;;;;;;;-146.90;100.00;60518.97;4983552;28;20030;-71
2021/11/24 01:19:50;;;;;;;27.25;17.83;;;;;;;-146.90;100.00;60518.97;4985791;28;20064;-70
2021/11/24 01:22:15;;;;;;;24.50;16.77;;;;;;;-146.90;100.00;60518.97;4982817;28;20072;-69
2021/11/24 01:24:41;;;;;;;26.45;17.27;;;;;;;-146.90;100.00;60518.97;4985105;28;20022;-71
2021/11/24 01:27:06;;;;;;;26.77;18.10;;;;;;;-146.90;100.00;60518.97;4983766;28;20037;-69
2021/11/24 01:29:32;;;;;;;24.90;17.55;;;;;;;-146.90;100.00;60518.97;4983086;28;20034;-68
2021/11/24 01:31:57;;;;;;;32.60;18.30;;;;;;;-146.90;100.00;60518.97;4984709;28;20591;-72
2021/11/24 01:34:22;;;;;;;27.33;17.95;;;;;;;-146.90;100.00;60518.97;4983195;28;20026;-69
2021/11/24 01:36:48;;;;;;;28.30;17.20;;;;;;;-146.90;100.00;60518.97;4986568;28;20027;-71
2021/11/24 01:39:13;;;;;;;25.45;18.00;;;;;;;-146.90;100.00;60518.97;4983959;28;20419;-69
2021/11/24 01:41:38;;;;;;;23.58;16.60;;;;;;;-146.90;100.00;60518.97;4978861;28;20389;-67
2021/11/24 01:44:04;;;;;;;27.23;17.95;;;;;;;-146.90;100.00;60518.97;4987244;28;20038;-71
2021/11/24 01:46:29;;;;;;;25.17;17.13;;;;;;;-146.90;100.00;60518.97;4989777;28;20507;-69
2021/11/24 01:48:55;;;;;;;25.42;17.45;;;;;;;-146.90;100.00;60518.97;4987084;28;20084;-68
2021/11/24 01:51:20;;;;;;;27.35;17.13;;;;;;;-146.90;100.00;60518.97;4986572;28;20022;-69
2021/11/24 01:53:46;;;;;;;22.05;16.40;;;;;;;-146.90;100.00;60518.97;4986797;28;20027;-69
2021/11/24 01:56:12;;;;;;;25.77;16.58;;;;;;;-146.90;100.00;60518.97;4988823;28;20438;-67
2021/11/24 01:58:39;;;;;;;26.63;17.75;;;;;;;-146.90;100.00;60518.97;4988170;28;20053;-68
2021/11/24 02:01:05;;;;;;;25.42;17.88;;;;;;;-146.90;100.00;60518.97;4984363;28;20487;-70
2021/11/24 02:03:31;;;;;;;26.55;17.02;;;;;;;-146.90;100.00;60518.97;4986069;28;20037;-67
2021/11/24 02:05:56;;;;;;;24.55;16.63;;;;;;;-146.90;100.00;60518.97;4988946;28;20032;-70
2021/11/24 02:08:22;;;;;;;26.42;18.13;;;;;;;-146.90;100.00;60518.97;4985999;28;20053;-67
2021/11/24 02:10:47;;;;;;;27.85;18.80;;;;;;;-146.90;100.00;60518.97;4985998;28;20030;-69
2021/11/24 02:13:13;;;;;;;27.27;17.55;;;;;;;-146.90;100.00;60518.97;4986065;28;20023;-69
2021/11/24 02:15:38;;;;;;;27.85;18.42;;;;;;;-146.90;100.00;60518.97;4986203;28;20515;-69
2021/11/24 02:18:06;;;;;;;25.15;17.58;;;;;;;-146.90;100.00;60518.97;4986854;28;20034;-70
2021/11/24 02:20:41;;;;;;;27.58;17.95;;;;;;;-146.90;100.00;60518.97;4985608;28;20022;-70
2021/11/24 02:23:08;;;;;;;29.25;18.55;;;;;;;-146.90;100.00;60518.97;4985926;28;20031;-69
2021/11/24 02:25:34;;;;;;;25.88;17.98;;;;;;;-146.90;100.00;60518.97;4985758;28;20033;-70
2021/11/24 02:28:00;;;;;;;28.58;18.23;;;;;;;-146.90;100.00;60518.97;4985512;28;20034;-70
2021/11/24 02:30:25;;;;;;;26.40;18.38;;;;;;;-146.90;100.00;60518.97;4986121;28;20030;-70
2021/11/24 02:32:51;;;;;;;34.67;18.88;;;;;;;-146.90;100.00;60518.97;4986793;28;20030;-70
2021/11/24 02:35:16;;;;;;;31.10;19.65;;;;;;;-146.90;100.00;60518.97;4982839;28;20439;-68
2021/11/24 02:37:41;;;;;;;26.02;17.85;;;;;;;-146.90;100.00;60518.97;4951362;28;20023;-69
2021/11/24 02:40:07;;;;;;;25.35;18.38;;;;;;;-146.90;100.00;60518.97;4983609;28;20041;-68
2021/11/24 02:42:32;;;;;;;33.15;19.83;;;;;;;-146.90;100.00;60518.97;4985064;28;20034;-69
2021/11/24 02:44:58;;;;;;;32.88;19.92;;;;;;;-146.90;100.00;60518.97;4986516;28;20026;-70
2021/11/24 02:47:25;;;;;;;29.48;19.85;;;;;;;-146.90;100.00;60518.97;4988983;28;20113;-69
2021/11/24 02:49:52;;;;;;;35.30;19.00;;;;;;;-146.90;100.00;60518.97;4986652;28;20399;-69
2021/11/24 02:52:19;;;;;;;29.60;17.83;;;;;;;-146.90;100.00;60518.97;4983756;28;20036;-69
2021/11/24 02:54:57;;;;;;;26.98;18.77;;;;;;;-146.90;100.00;60518.97;4984652;28;20088;-69
2021/11/24 02:57:37;;;;;;;22.98;15.90;;;;;;;-146.90;100.00;60518.97;4985655;28;20026;-70
2021/11/24 03:00:16;;;;;;;25.25;14.48;;;;;;;-146.90;100.00;60518.97;4984784;28;20065;-70
2021/11/24 03:02:42;;;;;;;19.65;13.93;;;;;;;-146.90;100.00;60518.97;4978178;28;20027;-71
2021/11/24 03:05:08;;;;;;;21.73;14.43;;;;;;;-146.90;100.00;60518.97;4966275;28;20034;-70
2021/11/24 03:07:34;;;;;;;20.52;14.93;;;;;;;-146.90;100.00;60518.97;4968777;28;20031;-70
2021/11/24 03:09:59;;;;;;;24.45;14.10;;;;;;;-146.90;100.00;60518.97;4980387;28;20475;-70
2021/11/24 03:12:24;;;;;;;23.52;14.57;;;;;;;-146.90;100.00;60518.97;4985436;28;20041;-70
2021/11/24 03:14:50;;;;;;;20.17;13.40;;;;;;;-146.90;100.00;60518.97;4986041;28;20041;-69
2021/11/24 03:17:15;;;;;;;18.92;13.45;;;;;;;-146.90;100.00;60518.97;4986459;28;20025;-70
2021/11/24 03:19:41;;;;;;;19.73;13.63;;;;;;;-146.90;100.00;60518.97;4984861;28;20033;-70
2021/11/24 03:22:06;;;;;;;23.80;14.27;;;;;;;-146.90;100.00;60518.97;4984131;28;20023;-70
2021/11/24 03:24:31;;;;;;;22.38;15.38;;;;;;;-146.90;100.00;60518.97;4985721;28;20033;-70
2021/11/24 03:26:57;;;;;;;23.85;13.75;;;;;;;-146.90;100.00;60518.97;4984889;28;20026;-68
2021/11/24 03:29:22;;;;;;;18.92;12.73;;;;;;;-146.90;100.00;60518.97;4984618;28;20030;-69
2021/11/24 03:31:48;;;;;;;21.58;14.25;;;;;;;-146.90;100.00;60518.97;4984238;28;20064;-69
2021/11/24 03:34:13;;;;;;;22.23;13.60;;;;;;;-146.90;100.00;60518.97;4986710;28;20027;-70
2021/11/24 03:36:38;;;;;;;20.60;12.60;;;;;;;-146.90;100.00;60518.97;4986119;28;20114;-70
2021/11/24 03:39:05;;;;;;;17.55;12.32;;;;;;;-146.90;100.00;60518.97;4984869;28;20022;-70
2021/11/24 03:41:30;;;;;;;19.45;12.15;;;;;;;-146.90;100.00;60518.97;4987088;28;20034;-68
2021/11/24 03:43:56;;;;;;;18.73;12.93;;;;;;;-146.90;100.00;60518.97;4984196;28;20493;-70
2021/11/24 03:46:21;;;;;;;20.50;12.65;;;;;;;-146.90;100.00;60518.97;4985827;28;20093;-70
2021/11/24 03:48:46;;;;;;;19.95;13.07;;;;;;;-146.90;100.00;60518.97;4982917;28;20033;-70
2021/11/24 03:51:12;;;;;;;17.95;12.68;;;;;;;-146.90;100.00;60518.97;4986327;28;20019;-69
2021/11/24 03:53:40;;;;;;;19.05;12.35;;;;;;;-146.90;100.00;60518.97;4983598;28;20033;-67
2021/11/24 03:56:07;;;;;;;18.70;12.55;;;;;;;-146.90;100.00;60518.97;4984244;28;20819;-68
2021/11/24 03:58:32;;;;;;;21.30;13.15;;;;;;;-146.90;100.00;60518.97;4983411;28;20029;-69
2021/11/24 04:00:58;;;;;;;25.98;13.85;;;;;;;-146.90;100.00;60518.97;4985695;28;20101;-68
2021/11/24 04:03:23;;;;;;;21.48;12.85;;;;;;;-146.90;100.00;60518.97;4984104;28;20254;-70
2021/11/24 04:05:52;;;;;;;20.95;12.52;;;;;;;-146.90;100.00;60518.97;4986301;28;20041;-70
2021/11/24 04:08:18;;;;;;;23.70;12.95;;;;;;;-146.90;100.00;60518.97;4986355;28;20132;-68
2021/11/24 04:10:43;;;;;;;19.88;12.70;;;;;;;-146.90;100.00;60518.97;4986323;28;20480;-71
2021/11/24 04:13:08;;;;;;;19.27;12.82;;;;;;;-146.90;100.00;60518.97;4983834;28;20496;-71
2021/11/24 04:15:34;;;;;;;27.00;13.15;;;;;;;-146.90;100.00;60518.97;4985846;28;20041;-70
2021/11/24 04:17:59;;;;;;;22.75;14.45;;;;;;;-146.90;100.00;60518.97;4984929;28;20030;-67
2021/11/24 04:20:24;;;;;;;22.58;14.10;;;;;;;-146.90;100.00;60518.97;4985078;28;20030;-70
2021/11/24 04:22:50;;;;;;;24.48;14.57;;;;;;;-146.90;100.00;60518.97;4985493;28;20109;-69
2021/11/24 04:25:17;;;;;;;26.00;15.23;;;;;;;-146.90;100.00;60518.97;4984955;28;20058;-69
2021/11/24 04:27:43;;;;;;;22.75;14.45;;;;;;;-146.90;100.00;60518.97;4985138;28;20359;-70
2021/11/24 04:30:09;;;;;;;25.35;14.45;;;;;;;-146.90;100.00;60518.97;4982431;28;20033;-69
2021/11/24 04:32:35;;;;;;;24.73;14.98;;;;;;;-146.90;100.00;60518.97;4985332;28;20443;-70
2021/11/24 04:35:00;;;;;;;22.92;14.05;;;;;;;-146.90;100.00;60518.97;4984805;28;20022;-69
2021/11/24 04:37:25;;;;;;;23.95;14.30;;;;;;;-146.90;100.00;60518.97;4986634;28;20120;-71
2021/11/24 04:39:51;;;;;;;20.23;13.57;;;;;;;-146.90;100.00;60518.97;4984776;28;20359;-67
2021/11/24 04:42:16;;;;;;;20.70;13.93;;;;;;;-146.90;100.00;60518.97;4986671;28;20026;-69
2021/11/24 04:44:42;;;;;;;23.02;14.38;;;;;;;-146.90;100.00;60518.97;4983738;28;20050;-71
2021/11/24 04:47:07;;;;;;;19.90;14.63;;;;;;;-146.90;100.00;60518.97;4984621;28;20034;-70
2021/11/24 04:49:32;;;;;;;22.35;14.43;;;;;;;-146.90;100.00;60518.97;4984346;28;20033;-70
2021/11/24 04:51:58;;;;;;;23.20;14.27;;;;;;;-146.90;100.00;60518.97;4984214;28;20133;-70
2021/11/24 04:54:23;;;;;;;24.55;15.23;;;;;;;-146.90;100.00;60518.97;4983651;28;20030;-70
2021/11/24 04:56:48;;;;;;;22.75;15.45;;;;;;;-146.90;100.00;60518.97;4984526;28;20400;-70
2021/11/24 04:59:15;;;;;;;26.30;15.00;;;;;;;-146.90;100.00;60518.97;4986150;28;20019;-70
2021/11/24 05:01:40;;;;;;;24.02;15.32;;;;;;;-146.90;100.00;60518.97;4982847;28;20498;-70
2021/11/24 05:04:05;;;;;;;22.40;14.68;;;;;;;-146.90;100.00;60518.97;4986227;28;20113;-70
2021/11/24 05:06:31;;;;;;;24.50;16.00;;;;;;;-146.90;100.00;60518.97;4981151;28;20030;-72
2021/11/24 05:08:56;;;;;;;23.95;15.43;;;;;;;-146.90;100.00;60518.97;4984641;28;20062;-70
2021/11/24 05:11:21;;;;;;;25.02;15.52;;;;;;;-146.90;100.00;60518.97;4982194;28;20093;-71
2021/11/24 05:13:53;;;;;;;24.52;16.13;;;;;;;-146.90;100.00;60518.97;4989484;28;20022;-69
2021/11/24 05:16:21;;;;;;;26.20;16.02;;;;;;;-146.90;100.00;60518.97;4990285;28;20049;-70
2021/11/24 05:18:49;;;;;;;25.48;16.38;;;;;;;-146.90;100.00;60518.97;4988403;28;20411;-71
2021/11/24 05:23:47;;;;;;;29.27;17.80;;;;;;;-146.90;100.00;60518.97;4984257;28;20030;-72
2021/11/24 05:26:12;;;;;;;26.73;16.85;;;;;;;-146.90;100.00;60518.97;4990251;28;20028;-71
2021/11/24 05:28:38;;;;;;;27.33;18.10;;;;;;;-146.90;100.00;60518.97;4992422;28;20042;-69
2021/11/24 05:31:04;;;;;;;24.27;17.40;;;;;;;-146.90;100.00;60518.97;4990481;28;20061;-71
2021/11/24 05:33:29;;;;;;;26.67;17.40;;;;;;;-146.90;100.00;60518.97;4989380;28;20038;-69
2021/11/24 05:35:55;;;;;;;25.88;17.98;;;;;;;-146.90;100.00;60518.97;4991378;28;20238;-69
2021/11/24 05:38:20;;;;;;;24.80;18.27;;;;;;;-146.90;100.00;60518.97;4988410;28;20038;-71
2021/11/24 05:40:46;;;;;;;28.73;18.20;;;;;;;-146.90;100.00;60518.97;4986690;28;20109;-70
2021/11/24 05:43:13;;;;;;;28.77;18.23;;;;;;;-146.90;100.00;60518.97;4990595;28;20034;-70
2021/11/24 05:45:48;;;;;;;26.48;17.77;;;;;;;-146.90;100.00;60518.97;4981349;28;20033;-72
2021/11/24 05:48:14;;;;;;;26.50;18.17;;;;;;;-146.90;100.00;60518.97;4990432;28;20132;-69
2021/11/24 05:50:42;;;;;;;28.90;18.25;;;;;;;-146.90;100.00;60518.97;4987824;28;20120;-70
2021/11/24 05:53:07;;;;;;;28.42;17.83;;;;;;;-146.90;100.00;60518.97;4990800;28;20022;-70
2021/11/24 05:55:32;;;;;;;28.05;18.75;;;;;;;-146.90;100.00;60518.97;4986881;28;20030;-68
2021/11/24 05:57:58;;;;;;;27.45;19.48;;;;;;;-146.90;100.00;60518.97;4989567;28;20026;-69
2021/11/24 06:00:23;;;;;;;27.92;18.95;;;;;;;-146.90;100.00;60518.97;4986875;28;20023;-71
2021/11/24 06:02:49;;;;;;;30.50;19.70;;;;;;;-146.90;100.00;60518.97;4989828;28;20076;-70
2021/11/24 06:05:14;;;;;;;28.33;18.92;;;;;;;-146.90;100.00;60518.97;4989229;28;20026;-70
2021/11/24 06:07:40;;;;;;;32.08;19.80;;;;;;;-146.90;100.00;60518.97;4990323;28;20035;-71
2021/11/24 06:10:07;;;;;;;30.17;19.88;;;;;;;-146.90;100.00;60518.97;4989907;28;20030;-70
2021/11/24 06:12:33;;;;;;;33.13;19.73;;;;;;;-146.90;100.00;60518.97;4988596;28;20149;-69
2021/11/24 06:14:59;;;;;;;33.30;20.48;;;;;;;-146.90;100.00;60518.97;4988593;28;20113;-70
2021/11/24 06:17:24;;;;;;;31.63;21.15;;;;;;;-146.90;100.00;60518.97;4985196;28;20141;-71
2021/11/24 06:19:50;;;;;;;31.27;20.48;;;;;;;-146.90;100.00;60518.97;4989946;28;20026;-69
2021/11/24 06:22:15;;;;;;;30.48;21.33;;;;;;;-146.90;100.00;60518.97;4987794;28;20026;-71
2021/11/24 06:24:41;;;;;;;35.90;22.63;;;;;;;-146.90;100.00;60518.97;4988087;28;20028;-68
2021/11/24 06:27:06;;;;;;;36.35;22.30;;;;;;;-146.90;100.00;60518.97;4986567;28;20120;-70
2021/11/24 06:29:31;;;;;;;35.75;22.70;;;;;;;-146.90;100.00;60518.97;4985246;28;20152;-69
2021/11/24 06:31:57;;;;;;;37.88;23.45;;;;;;;-146.90;100.00;60518.97;4985092;28;20027;-69
2021/11/24 06:34:23;;;;;;;32.85;23.00;;;;;;;-146.90;100.00;60518.97;4983690;28;20475;-69
2021/11/24 06:36:48;;;;;;;34.03;23.20;;;;;;;-146.90;100.00;60518.97;4987240;28;20222;-68
2021/11/24 06:39:14;;;;;;;33.15;23.55;;;;;;;-146.90;100.00;60518.97;4986458;28;20029;-69
2021/11/24 06:41:39;;;;;;;44.67;24.33;;;;;;;-146.90;100.00;60518.97;4986962;28;20030;-69
2021/11/24 06:44:05;;;;;;;34.05;23.25;;;;;;;-146.90;100.00;60518.97;4985318;28;20030;-68
2021/11/24 06:46:33;;;;;;;36.25;23.88;;;;;;;-146.90;100.00;60518.97;4984323;28;20069;-69
2021/11/24 06:48:58;;;;;;;35.78;23.88;;;;;;;-146.90;100.00;60518.97;4986070;28;20085;-68
2021/11/24 06:51:23;;;;;;;35.15;24.38;;;;;;;-146.90;100.00;60518.97;4984791;28;20434;-69
2021/11/24 06:53:49;;;;;;;36.80;24.58;;;;;;;-146.90;100.00;60518.97;4985769;28;20033;-69
2021/11/24 06:56:14;;;;;;;38.72;24.60;;;;;;;-146.90;100.00;60518.97;4988573;28;20084;-69
2021/11/24 06:58:39;;;;;;;36.97;25.10;;;;;;;-146.90;100.00;60518.97;4988525;28;20053;-70
2021/11/24 07:01:05;;;;;;;35.70;24.35;;;;;;;-146.90;100.00;60518.97;4986119;28;20061;-69
2021/11/24 07:03:30;;;;;;;35.08;24.45;;;;;;;-146.90;100.00;60518.97;4982530;28;20033;-70
2021/11/24 07:05:56;;;;;;;36.35;24.33;;;;;;;-146.90;100.00;60518.97;4981236;28;20114;-68
2021/11/24 07:08:23;;;;;;;40.00;25.40;;;;;;;-146.90;100.00;60518.97;4985319;28;20038;-69
2021/11/24 07:10:48;;;;;;;37.42;25.05;;;;;;;-146.90;100.00;60518.97;4970397;28;20126;-69
2021/11/24 07:13:14;;;;;;;36.10;25.65;;;;;;;-146.90;100.00;60518.97;4986170;28;20097;-69
2021/11/24 07:15:39;;;;;;;47.20;26.77;;;;;;;-146.90;100.00;60518.97;4986041;28;20109;-70
2021/11/24 07:18:05;;;;;;;40.05;26.40;;;;;;;-146.90;100.00;60518.97;4987645;28;20030;-69
2021/11/24 07:20:30;;;;;;;39.17;27.13;;;;;;;-146.90;100.00;60518.97;4986271;28;20292;-69
2021/11/24 07:22:55;;;;;;;42.15;27.42;;;;;;;-146.90;100.00;60518.97;4986371;28;20034;-69
2021/11/24 07:25:22;;;;;;;39.72;26.35;;;;;;;-146.90;100.00;60518.97;4986275;28;20022;-68
2021/11/24 07:27:48;;;;;;;41.88;26.55;;;;;;;-146.90;100.00;60518.97;4987443;28;20042;-70
2021/11/24 07:30:14;;;;;;;38.28;25.42;;;;;;;-146.90;100.00;60518.97;4986198;28;20107;-68
2021/11/24 07:32:39;;;;;;;38.42;24.95;;;;;;;-146.90;100.00;60518.97;4986343;28;20045;-68
2021/11/24 07:35:06;;;;;;;37.88;25.95;;;;;;;-146.90;100.00;60518.97;4986924;28;20034;-69
2021/11/24 07:37:31;;;;;;;45.58;25.23;;;;;;;-146.90;100.00;60518.97;4985541;28;20026;-69
2021/11/24 07:39:56;;;;;;;36.45;24.83;;;;;;;-146.90;100.00;60518.97;4987453;28;20045;-69
2021/11/24 07:42:21;;;;;;;37.20;25.00;;;;;;;-146.90;100.00;60518.97;4969142;28;20110;-70
2021/11/24 07:44:47;;;;;;;37.40;25.65;;;;;;;-146.90;100.00;60518.97;4987129;28;20031;-69
2021/11/24 07:47:12;;;;;;;41.33;26.60;;;;;;;-146.90;100.00;60518.97;4986720;28;20077;-70
2021/11/24 07:49:38;;;;;;;39.53;26.23;;;;;;;-146.90;100.00;60518.97;4986915;28;20109;-71
2021/11/24 07:52:03;;;;;;;35.45;24.40;;;;;;;-146.90;100.00;60518.97;4982121;28;20026;-71
2021/11/24 07:54:29;;;;;;;38.50;24.13;;;;;;;-146.90;100.00;60518.97;4983301;28;20184;-70
2021/11/24 07:56:54;;;;;;;36.55;24.38;;;;;;;-146.90;100.00;60518.97;4984448;28;20026;-68
2021/11/24 07:59:19;;;;;;;33.78;24.52;;;;;;;-146.90;100.00;60518.97;4983181;28;20136;-71
2021/11/24 08:01:45;;;;;;;31.80;24.60;;;;;;;-146.90;100.00;60518.97;4986247;28;20098;-68
2021/11/24 08:04:10;;;;;;;35.35;24.58;;;;;;;-146.90;100.00;60518.97;4986291;28;20113;-69
2021/11/24 08:06:36;;;;;;;32.97;24.15;;;;;;;-146.90;100.00;60518.97;4986531;28;20014;-69
2021/11/24 08:09:02;;;;;;;34.35;24.13;;;;;;;-146.90;100.00;60518.97;4984952;28;20031;-69
2021/11/24 08:11:27;;;;;;;32.28;23.30;;;;;;;-146.90;100.00;60518.97;4967772;28;20037;-69
2021/11/24 08:13:53;;;;;;;34.28;25.13;;;;;;;-146.90;100.00;60518.97;4979101;28;20055;-69
2021/11/24 08:16:18;;;;;;;33.20;23.85;;;;;;;-146.90;100.00;60518.97;4989324;28;20018;-69
2021/11/24 08:18:43;;;;;;;40.45;25.30;;;;;;;-146.90;100.00;60518.97;4986019;28;20041;-69
2021/11/24 08:21:09;;;;;;;34.88;22.92;;;;;;;-146.90;100.00;60518.97;4986437;28;20096;-69
2021/11/24 08:23:34;;;;;;;31.55;22.33;;;;;;;-146.90;100.00;60518.97;4986046;28;20018;-68
2021/11/24 08:25:59;;;;;;;27.80;22.52;;;;;;;-146.90;100.00;60518.97;4986854;28;20028;-70
2021/11/24 08:28:25;;;;;;;30.70;21.85;;;;;;;-146.90;100.00;60518.97;4984578;28;20427;-71
2021/11/24 08:30:50;;;;;;;33.20;22.75;;;;;;;-146.90;100.00;60518.97;4984127;28;20046;-68
2021/11/24 08:33:16;;;;;;;34.70;22.38;;;;;;;-146.90;100.00;60518.97;4983839;28;20031;-68
2021/11/24 08:35:41;;;;;;;28.65;22.50;;;;;;;-146.90;100.00;60518.97;4986629;28;20030;-68
2021/11/24 08:38:07;;;;;;;31.15;21.70;;;;;;;-146.90;100.00;60518.97;4986343;28;20033;-70
2021/11/24 08:40:32;;;;;;;30.40;20.95;;;;;;;-146.90;100.00;60518.97;4985815;28;20018;-69
2021/11/24 08:42:58;;;;;;;33.70;22.30;;;;;;;-146.90;100.00;60518.97;4986242;28;20077;-69
2021/11/24 08:45:23;;;;;;;32.83;21.35;;;;;;;-146.90;100.00;60518.97;4984662;28;20079;-70
2021/11/24 08:47:49;;;;;;;32.75;21.17;;;;;;;-146.90;100.00;60518.97;4985848;28;20038;-70
2021/11/24 08:50:15;;;;;;;30.30;21.23;;;;;;;-146.90;100.00;60518.97;4984580;28;20022;-71
2021/11/24 08:52:41;;;;;;;34.78;20.65;;;;;;;-146.90;100.00;60518.97;4987014;28;20029;-68
2021/11/24 08:55:08;;;;;;;26.27;19.15;;;;;;;-146.90;100.00;60518.97;4985742;28;20668;-71
2021/11/24 08:57:33;;;;;;;27.65;19.20;;;;;;;-146.90;100.00;60518.97;4986060;28;20030;-71
2021/11/24 08:59:58;;;;;;;26.70;18.80;;;;;;;-146.90;100.00;60518.97;4984501;28;20353;-67
2021/11/24 09:02:28;;;;;;;24.73;17.60;;;;;;;-146.90;100.00;60518.97;4984803;28;20026;-68
2021/11/24 09:04:54;;;;;;;29.63;17.27;;;;;;;-146.90;100.00;60518.97;4985883;28;20030;-72
2021/11/24 09:07:19;;;;;;;27.85;16.95;;;;;;;-146.90;100.00;60518.97;4986158;28;20113;-69
2021/11/24 09:09:44;;;;;;;27.52;17.45;;;;;;;-146.90;100.00;60518.97;4985515;28;20476;-69
2021/11/24 09:12:10;;;;;;;24.50;17.70;;;;;;;-146.90;100.00;60518.97;4985775;28;20503;-69
2021/11/24 09:14:35;;;;;;;23.90;17.40;;;;;;;-146.90;100.00;60518.97;4984143;28;20448;-71
2021/11/24 09:17:00;;;;;;;25.27;17.02;;;;;;;-146.90;100.00;60518.97;4985717;28;20090;-69
2021/11/24 09:19:26;;;;;;;27.48;16.52;;;;;;;-146.90;100.00;60518.97;4984751;28;20022;-69
2021/11/24 09:21:51;;;;;;;23.73;15.60;;;;;;;-146.90;100.00;60518.97;4983008;28;20037;-68
2021/11/24 09:24:22;;;;;;;23.75;16.23;;;;;;;-146.90;100.00;60518.97;4983591;28;20027;-71
2021/11/24 09:27:29;;;;;;;30.30;15.07;;;;;;;-146.90;100.00;60518.97;4984573;28;20019;-74
2021/11/24 09:29:39;;;;;;;19.92;13.52;;;;;;;-146.90;100.00;60518.97;4981175;28;20792;-68
2021/11/24 09:32:05;;;;;;;18.15;12.88;;;;;;;-146.90;100.00;60518.97;4983096;28;20109;-69
2021/11/24 09:34:31;;;;;;;16.75;11.80;;;;;;;-146.90;100.00;60518.97;4982041;28;20565;-68
2021/11/24 09:36:58;;;;;;;16.65;12.85;;;;;;;-146.90;100.00;60518.97;4985433;28;20539;-69
2021/11/24 09:39:23;;;;;;;18.70;12.77;;;;;;;-146.90;100.00;60518.97;4980919;28;20027;-69
2021/11/24 09:41:49;;;;;;;20.45;12.75;;;;;;;-146.90;100.00;60518.97;4998656;28;20033;-70
2021/11/24 09:44:15;;;;;;;16.60;12.38;;;;;;;-146.90;100.00;60518.97;4986180;28;20057;-69
2021/11/24 09:46:46;;;;;;;17.63;12.98;;;;;;;-146.90;100.00;60518.97;4984293;28;20054;-69
2021/11/24 09:49:13;;;;;;;17.35;12.45;;;;;;;-146.90;100.00;60518.97;4983763;28;20027;-69
2021/11/24 09:51:38;;;;;;;18.05;12.35;;;;;;;-146.90;100.00;60518.97;4984788;28;20221;-68
2021/11/24 09:54:04;;;;;;;19.67;13.10;;;;;;;-146.90;100.00;60518.97;4983963;28;20109;-68
2021/11/24 09:56:30;;;;;;;17.95;12.45;;;;;;;-146.90;100.00;60518.97;4981611;28;20475;-69
2021/11/24 09:58:56;;;;;;;21.92;12.95;;;;;;;-146.90;100.00;60518.97;4984129;28;20054;-66
2021/11/24 10:01:22;;;;;;;20.42;13.75;;;;;;;-146.90;100.00;60518.97;4987426;28;20038;-70
2021/11/24 10:03:48;;;;;;;16.17;11.73;;;;;;;-146.90;100.00;60518.97;4988228;28;20468;-70
2021/11/24 10:06:14;;;;;;;19.55;12.85;;;;;;;-146.90;100.00;60518.97;4978901;28;20062;-69
2021/11/24 10:08:39;;;;;;;19.73;13.13;;;;;;;-146.90;100.00;60518.97;4969032;28;20023;-69
2021/11/24 10:11:05;;;;;;;18.02;12.70;;;;;;;-146.90;100.00;60518.97;4978153;28;20022;-70
2021/11/24 10:13:31;;;;;;;21.65;13.45;;;;;;;-146.90;100.00;60518.97;4986714;28;20388;-69
2021/11/24 10:15:58;;;;;;;19.52;12.52;;;;;;;-146.90;100.00;60518.97;4987665;28;20142;-69
2021/11/24 10:18:35;;;;;;;18.27;12.65;;;;;;;-146.90;100.00;60518.97;4988620;28;20106;-69
2021/11/24 10:21:06;;;;;;;17.13;11.60;;;;;;;-146.90;100.00;60518.97;4986443;28;20030;-69
2021/11/24 10:23:47;;;;;;;20.90;11.73;;;;;;;-146.90;100.00;60518.97;4989173;28;20157;-69
2021/11/24 10:26:22;;;;;;;17.98;11.07;;;;;;;-146.90;100.00;60518.97;4986874;28;20462;-67
2021/11/24 10:29:06;;;;;;;15.80;11.15;;;;;;;-146.90;100.00;60518.97;4988757;28;20030;-70
2021/11/24 10:31:41;;;;;;;15.60;10.88;;;;;;;-146.90;100.00;60518.97;4988002;28;20061;-69
2021/11/24 10:34:30;;;;;;;22.00;11.20;;;;;;;-146.90;100.00;60518.97;4988435;28;20034;-68
2021/11/24 10:36:55;;;;;;;14.32;10.38;;;;;;;-146.90;100.00;60518.97;4987579;28;20503;-70
2021/11/24 10:39:23;;;;;;;16.25;10.27;;;;;;;-146.90;100.00;60518.97;4991621;28;20072;-69
2021/11/24 10:41:49;;;;;;;14.63;10.27;;;;;;;-146.90;100.00;60518.97;4987529;28;20026;-68
2021/11/24 10:44:28;;;;;;;20.27;10.52;;;;;;;-146.90;100.00;60518.97;4972988;28;20027;-69
2021/11/24 10:46:55;;;;;;;16.30;10.45;;;;;;;-146.90;100.00;60518.97;4990589;28;20026;-68
2021/11/24 10:49:30;;;;;;;13.57;9.57;;;;;;;-146.90;100.00;60518.97;4989034;28;20022;-69
2021/11/24 10:51:55;;;;;;;17.42;9.90;;;;;;;-146.90;100.00;60518.97;4987155;28;20066;-68
2021/11/24 10:54:21;;;;;;;16.42;9.60;;;;;;;-146.90;100.00;60518.97;4977595;28;20030;-68